Butte, MT

10:43 PM MDT on August 01, 2014 (GMT -0600)
Mooney (KBTM) Elev 5545 ft | 45.95 °N, 112.50 °W | Change Station

Current weather conditions updated 50 minutes ago

Clear
Clear
72 °F
Feels Like 72 °F
N
6
Wind Variable Wind from North

Tomorrow is forecast to be nearly the same temperature as today. Afternoon thunderstorms.

Today
High -- | Low -- °F
--% Chance of Precip.
Yesterday
High -- | Low -- °F
Precip. -- in
6:12 AM 8:59 PM
Waxing Crescent, 32% visible
Pressure 30.10 in
Visibility 10.0 miles
Clouds Clear
Dew Point 41 °F
Humidity 33%
Rainfall 0.00 in
Snow Depth 0 in
UV 0 out of 12
Pollen 5.40 out of 12
Air Quality Not available.
Flu Activity Not available.
METAR KBTM 020353Z AUTO 36005KT 10SM CLR 22/05 A3028 RMK AO2 SLP193 T02220050

More Conditions Fewer Conditions

Pressure 30.10 in
Visibility 10.0 miles
Clouds Clear
Dew Point 41 °F
Humidity 33%
Rainfall 0.00 in
Snow Depth 0 in
UV 0 out of 12
Pollen 5.40 out of 12
Air Quality Not available.
Flu Activity Not available.
METAR KBTM 020353Z AUTO 36005KT 10SM CLR 22/05 A3028 RMK AO2 SLP193 T02220050

More Conditions Fewer Conditions

10-Day Weather Forecast

Almanac

Astronomy

Aug. 01, 2014 Rise Set
Actual Time 6:12 AM MDT 8:59 PM MDT
Civil Twilight 5:38 AM MDT 9:33 PM MDT
Nautical Twilight 4:54 AM MDT 10:17 PM MDT
Astronomical Twilight 4:02 AM MDT 11:08 PM MDT
Moon 12:00 PM MDT (8/1) 11:24 PM MDT (8/1)
Length of Visible Light 15h 55m
Length of Day
14h 46m
Tomorrow will be 2m 31s shorter.
Waxing Crescent, 32% of the Moon is Illuminated
Aug 2
Waxing Crescent
Aug 3
First Quarter
Aug 10
Full
Aug 17
Last Quarter
Aug 25
New

Yesterday's Extremes

State Highs State Lows

Community

WunderPhotos

Upload Photos

1,739,823 photos uploaded!

Nearby

Snow Depth

Station Depth Elevation
Basin Creek 0 in 7180 ft
Brackett Creek 0 in 7320 ft
Rocker Peak 0 in 8000 ft
Barker Lakes 0 in 8250 ft
Albro Lake 0 in 8300 ft

Earthquake Activity

City Distance Mag. Time & Date
Dillon, Montana 42 miles 3.9 6:51 AM MDT
2014-07-28
Townsend, Montana 57 miles 3.0 10:32 AM MDT
2014-07-26
Minimum magnitude displayed is 2.5.

Coastal Water Temperatures

Place Temperature
No Stations Reporting

Nearby Weather Stations

Station Location Temp. Heat Index Dew Point Humidity Wind Precip. Elev Updated Type
Kelley Mine Yard, Butte, MT 69.3 °F - 43 °F 39% North  at  4.0 mph 0.00 in / hr 6138 ft 10:40 PM MDT Normal
Warm Springs Ponds, Opportunity, MT 71.0 °F 77 °F 46 °F 41% ENE  at  5.0 mph - / hr 4900 ft 9:47 PM MDT Normal
Warm Springs Ponds (Pond 3), Opportunity, MT 72.8 °F 77 °F 45 °F 37% North  at  5.0 mph 0.00 in / hr 4885 ft 10:30 PM MDT Normal
Triangle Anaconda, Anaconda, MT 72.3 °F 77 °F 41 °F 32% WNW  at  1.0 mph 0.00 in / hr 5104 ft 10:40 PM MDT Normal
goosetown 2, Anaconda, MT 71.1 °F 77 °F 43 °F 36% West  at  2.0 mph 0.00 in / hr 5240 ft 10:42 PM MDT Normal
RAWS GALENA MT, Boulder, MT 57 °F - 47 °F 70% West  at  7 mph 0.00 in / hr 6859 ft 9:47 PM MDT MADIS

Show More Stations Show Fewer Stations